Time;durP1;ratioP1;P1;durP2;ratioP2;P2;SDS_P1;SDS_P2;PMS_P1;PMS_P2;Temp;Humidity;BMP_temperature;BMP_pressure;BME280_temperature;BME280_humidity;BME280_pressure;Samples;Min_cycle;Max_cycle;Signal;HPM_P1;HPM_P2
2024/01/18 00:01:55;;;;;;;;;;;;;;;2.04;100.00;96019.40;110373;1241;60479;-58
2024/01/18 00:04:25;;;;;;;;;;;;;;;2.13;100.00;96011.34;110374;1241;72611;-57
2024/01/18 00:06:56;;;;;;;;;;;;;;;2.20;100.00;96003.98;110421;1241;69260;-58
2024/01/18 00:09:26;;;;;;;;;;;;;;;2.27;100.00;95996.15;110493;1241;69765;-59
2024/01/18 00:11:56;;;;;;;;;;;;;;;2.34;100.00;95992.12;110438;1241;60537;-59
2024/01/18 00:14:27;;;;;;;;;;;;;;;2.41;100.00;95987.59;110446;1241;60550;-58
2024/01/18 00:16:56;;;;;;;;;;;;;;;2.47;100.00;95983.73;110505;1241;72067;-59
2024/01/18 00:19:26;;;;;;;;;;;;;;;2.52;100.00;95978.77;110447;1238;69078;-59
2024/01/18 00:21:55;;;;;;;;;;;;;;;2.58;100.00;95975.86;110551;1241;68342;-59
2024/01/18 00:24:25;;;;;;;;;;;;;;;2.64;100.00;95974.27;110490;1238;60802;-58
2024/01/18 00:26:55;;;;;;;;;;;;;;;2.66;100.00;95971.72;110473;1241;60933;-58
2024/01/18 00:29:25;;;;;;;;;;;;;;;2.67;100.00;95978.69;110394;1241;72163;-57
2024/01/18 00:31:54;;;;;;;;;;;;;;;2.68;100.00;95978.10;110380;1239;69234;-58
2024/01/18 00:34:26;;;;;;;;;;;;;;;2.69;100.00;95970.10;110459;1241;69235;-57
2024/01/18 00:36:57;;;;;;;;;;;;;;;2.72;100.00;95968.73;110381;1241;60878;-58
2024/01/18 00:39:27;;;;;;;;;;;;;;;2.74;100.00;95963.45;110384;1238;60532;-57
2024/01/18 00:41:58;;;;;;;;;;;;;;;2.76;100.00;95968.11;110394;1241;72602;-57
2024/01/18 00:44:29;;;;;;;;;;;;;;;2.79;100.00;95963.45;110436;1242;69384;-58
2024/01/18 00:46:59;;;;;;;;;;;;;;;2.80;100.00;95957.20;110334;1241;69312;-57
2024/01/18 00:49:31;;;;;;;;;;;;;;;2.78;100.00;95956.62;110467;1239;60537;-57
2024/01/18 00:52:03;;;;;;;;;;;;;;;2.78;100.00;95952.36;110388;1238;60431;-59
2024/01/18 00:54:33;;;;;;;;;;;;;;;2.77;100.00;95945.36;110414;1241;72236;-58
2024/01/18 00:57:03;;;;;;;;;;;;;;;2.76;100.00;95940.11;110384;1241;69694;-58
2024/01/18 00:59:32;;;;;;;;;;;;;;;2.75;100.00;95933.47;110461;1241;69897;-57
2024/01/18 01:02:03;;;;;;;;;;;;;;;2.74;100.00;95924.53;110378;1238;60548;-59
2024/01/18 01:04:34;;;;;;;;;;;;;;;2.76;100.00;95918.90;110380;1242;60463;-58
2024/01/18 01:07:07;;;;;;;;;;;;;;;2.78;100.00;95916.92;110401;1241;72206;-57
2024/01/18 01:09:38;;;;;;;;;;;;;;;2.77;100.00;95914.02;110481;1241;68582;-59
2024/01/18 01:12:08;;;;;;;;;;;;;;;2.77;100.00;95910.09;110225;1238;69295;-57
2024/01/18 01:14:38;;;;;;;;;;;;;;;2.76;100.00;95908.23;110504;1242;60502;-58
2024/01/18 01:17:09;;;;;;;;;;;;;;;2.77;100.00;95901.13;110433;1241;60537;-58
2024/01/18 01:19:41;;;;;;;;;;;;;;;2.77;100.00;95893.90;110388;1238;72219;-59
2024/01/18 01:22:11;;;;;;;;;;;;;;;2.77;100.00;95886.34;110375;1241;69231;-58
2024/01/18 01:24:45;;;;;;;;;;;;;;;2.78;100.00;95886.65;110468;1241;68094;-58
2024/01/18 01:27:15;;;;;;;;;;;;;;;2.79;100.00;95879.70;110461;1242;60537;-58
2024/01/18 01:29:49;;;;;;;;;;;;;;;2.79;100.00;95874.35;110406;1241;60543;-58
2024/01/18 01:32:19;;;;;;;;;;;;;;;2.78;100.00;95868.20;110380;1242;72019;-58
2024/01/18 01:34:51;;;;;;;;;;;;;;;2.76;100.00;95858.16;110375;1240;69237;-58
2024/01/18 01:37:20;;;;;;;;;;;;;;;2.75;100.00;95854.79;110414;1242;68993;-58
2024/01/18 01:39:55;;;;;;;;;;;;;;;2.78;100.00;95857.06;110379;1238;60440;-58
2024/01/18 01:42:28;;;;;;;;;;;;;;;2.79;100.00;95855.91;110407;1241;60960;-58
2024/01/18 01:45:01;;;;;;;;;;;;;;;2.83;100.00;95857.23;110410;1238;71578;-58
2024/01/18 01:47:32;;;;;;;;;;;;;;;2.86;100.00;95860.45;110362;1241;68426;-57
2024/01/18 01:50:08;;;;;;;;;;;;;;;2.89;100.00;95866.61;110377;1241;68498;-58
2024/01/18 01:52:42;;;;;;;;;;;;;;;2.90;100.00;95863.77;110454;1241;60490;-57
2024/01/18 01:55:15;;;;;;;;;;;;;;;2.92;100.00;95858.90;110404;1245;60472;-57
2024/01/18 01:57:52;;;;;;;;;;;;;;;2.93;100.00;95857.77;110416;1241;72332;-57
2024/01/18 02:00:24;;;;;;;;;;;;;;;2.95;100.00;95856.91;110445;1241;68473;-59
2024/01/18 02:03:00;;;;;;;;;;;;;;;2.98;100.00;95853.80;110385;1238;68336;-58
2024/01/18 02:05:31;;;;;;;;;;;;;;;3.01;100.00;95851.92;110412;1238;60465;-59
2024/01/18 02:08:02;;;;;;;;;;;;;;;3.03;100.00;95851.40;110348;1241;60517;-58
2024/01/18 02:10:34;;;;;;;;;;;;;;;3.07;100.00;95849.94;110208;1242;72035;-57
2024/01/18 02:13:04;;;;;;;;;;;;;;;3.10;100.00;95850.07;110430;1241;69227;-58
2024/01/18 02:15:37;;;;;;;;;;;;;;;3.13;100.00;95846.41;110444;1242;69318;-58
2024/01/18 02:18:10;;;;;;;;;;;;;;;3.17;100.00;95847.57;110448;1242;60515;-60
2024/01/18 02:20:42;;;;;;;;;;;;;;;3.20;100.00;95845.42;110565;1241;60470;-58
2024/01/18 02:23:17;;;;;;;;;;;;;;;3.25;100.00;95844.72;110466;1242;71291;-59
2024/01/18 02:25:49;;;;;;;;;;;;;;;3.32;100.00;95842.91;110389;1242;69348;-60
2024/01/18 02:28:19;;;;;;;;;;;;;;;3.33;100.00;95845.89;110587;1242;69259;-58
2024/01/18 02:30:50;;;;;;;;;;;;;;;3.33;100.00;95851.77;110371;1241;60550;-58
2024/01/18 02:33:20;;;;;;;;;;;;;;;3.34;100.00;95851.34;110345;1243;60437;-58
2024/01/18 02:35:52;;;;;;;;;;;;;;;3.37;100.00;95850.31;110354;1240;72037;-59
2024/01/18 02:38:22;;;;;;;;;;;;;;;3.42;100.00;95848.04;110377;1242;69892;-60
2024/01/18 02:40:53;;;;;;;;;;;;;;;3.47;100.00;95850.10;110465;1241;69272;-59
2024/01/18 02:43:25;;;;;;;;;;;;;;;3.52;100.00;95847.20;110476;1238;60545;-60
2024/01/18 02:45:58;;;;;;;;;;;;;;;3.52;100.00;95843.75;110454;1241;60513;-60
2024/01/18 02:48:30;;;;;;;;;;;;;;;3.50;100.00;95840.80;110236;1238;72208;-59
2024/01/18 02:51:01;;;;;;;;;;;;;;;3.49;100.00;95842.20;110282;1244;68303;-59
2024/01/18 02:53:32;;;;;;;;;;;;;;;3.51;100.00;95841.21;110366;1242;69888;-57
2024/01/18 02:56:05;;;;;;;;;;;;;;;3.55;100.00;95844.91;110428;1241;60553;-60
2024/01/18 02:58:39;;;;;;;;;;;;;;;3.59;100.00;95845.48;110549;1238;60470;-60
2024/01/18 03:01:16;;;;;;;;;;;;;;;3.63;100.00;95843.67;110515;1242;72200;-59
2024/01/18 03:03:50;;;;;;;;;;;;;;;3.66;100.00;95838.45;110512;1241;69234;-61
2024/01/18 03:06:23;;;;;;;;;;;;;;;3.69;100.00;95842.37;110377;1241;68433;-61
2024/01/18 03:08:54;;;;;;;;;;;;;;;3.70;100.00;95841.47;110433;1238;60566;-61
2024/01/18 03:11:26;;;;;;;;;;;;;;;3.71;100.00;95838.99;110439;1242;60467;-61
2024/01/18 03:14:00;;;;;;;;;;;;;;;3.71;100.00;95840.34;110431;1242;72217;-60
2024/01/18 03:16:31;;;;;;;;;;;;;;;3.72;100.00;95841.30;110349;1238;69608;-59
2024/01/18 03:19:01;;;;;;;;;;;;;;;3.74;100.00;95843.07;110431;1242;68509;-59
2024/01/18 03:21:36;;;;;;;;;;;;;;;3.75;100.00;95846.25;110388;1241;60542;-59
2024/01/18 03:24:10;;;;;;;;;;;;;;;3.76;100.00;95841.75;110387;1241;60943;-59
2024/01/18 03:26:42;;;;;;;;;;;;;;;3.76;100.00;95843.42;110390;1241;72682;-60
2024/01/18 03:29:15;;;;;;;;;;;;;;;3.77;100.00;95845.30;110348;1241;69290;-60
2024/01/18 03:31:45;;;;;;;;;;;;;;;3.75;100.00;95843.70;110358;1241;69125;-59
2024/01/18 03:34:17;;;;;;;;;;;;;;;3.74;100.00;95844.64;110384;1241;60510;-60
2024/01/18 03:36:47;;;;;;;;;;;;;;;3.73;100.00;95840.52;110368;1241;60977;-60
2024/01/18 03:39:20;;;;;;;;;;;;;;;3.75;100.00;95840.77;110359;1241;71183;-59
2024/01/18 03:41:55;;;;;;;;;;;;;;;3.74;100.00;95838.05;110361;1241;68611;-59
2024/01/18 03:44:25;;;;;;;;;;;;;;;3.70;100.00;95840.45;110194;1244;69868;-59
2024/01/18 03:46:59;;;;;;;;;;;;;;;3.68;100.00;95838.66;110421;1241;60540;-59
2024/01/18 03:49:31;;;;;;;;;;;;;;;3.67;100.00;95841.64;110358;1242;60507;-59
2024/01/18 03:52:01;;;;;;;;;;;;;;;3.63;100.00;95842.11;110386;1241;71459;-60
2024/01/18 03:54:31;;;;;;;;;;;;;;;3.58;100.00;95843.30;110359;1241;69218;-60
2024/01/18 03:57:02;;;;;;;;;;;;;;;3.54;100.00;95841.04;110358;1242;69387;-60
2024/01/18 03:59:34;;;;;;;;;;;;;;;3.51;100.00;95839.14;110458;1241;60460;-60
2024/01/18 04:02:08;;;;;;;;;;;;;;;3.46;100.00;95838.48;110345;1242;60454;-59
2024/01/18 04:04:39;;;;;;;;;;;;;;;3.42;100.00;95834.80;110473;1241;71328;-60
2024/01/18 04:07:10;;;;;;;;;;;;;;;3.37;100.00;95837.35;110326;1242;68729;-59
2024/01/18 04:09:41;;;;;;;;;;;;;;;3.33;100.00;95833.52;110318;1241;69311;-58
2024/01/18 04:12:11;;;;;;;;;;;;;;;3.30;100.00;95831.84;110315;1242;60554;-60
2024/01/18 04:14:46;;;;;;;;;;;;;;;3.26;100.00;95833.45;110453;1242;60513;-59
2024/01/18 04:17:17;;;;;;;;;;;;;;;3.24;100.00;95831.94;110297;1241;72017;-59
2024/01/18 04:19:47;;;;;;;;;;;;;;;3.23;100.00;95831.13;110310;1242;69095;-58
2024/01/18 04:22:18;;;;;;;;;;;;;;;3.22;100.00;95827.23;110286;1243;69209;-59
2024/01/18 04:24:49;;;;;;;;;;;;;;;3.20;100.00;95826.87;110314;1242;60601;-59
2024/01/18 04:27:18;;;;;;;;;;;;;;;3.16;100.00;95820.27;110293;1240;60547;-59
2024/01/18 04:29:49;;;;;;;;;;;;;;;3.11;100.00;95823.48;110310;1241;72429;-61
2024/01/18 04:32:19;;;;;;;;;;;;;;;3.07;100.00;95827.05;110312;1242;69401;-61
2024/01/18 04:34:49;;;;;;;;;;;;;;;3.04;100.00;95826.16;110306;1241;69247;-60
2024/01/18 04:37:22;;;;;;;;;;;;;;;3.03;100.00;95822.13;110304;1241;60548;-61
2024/01/18 04:39:53;;;;;;;;;;;;;;;3.04;100.00;95823.64;110439;1242;60489;-61
2024/01/18 04:42:24;;;;;;;;;;;;;;;3.04;100.00;95822.27;110282;1241;72031;-58
2024/01/18 04:44:55;;;;;;;;;;;;;;;3.03;100.00;95823.30;110356;1242;69685;-59
2024/01/18 04:47:25;;;;;;;;;;;;;;;3.03;100.00;95821.27;110273;1242;69910;-57
2024/01/18 04:49:57;;;;;;;;;;;;;;;3.03;100.00;95814.69;110268;1242;60841;-57
2024/01/18 04:52:27;;;;;;;;;;;;;;;3.04;100.00;95814.81;110376;1242;60545;-60
2024/01/18 04:55:02;;;;;;;;;;;;;;;3.06;100.00;95808.52;110341;1242;72164;-60
2024/01/18 04:57:35;;;;;;;;;;;;;;;3.10;100.00;95805.70;110371;1241;69191;-60
2024/01/18 05:00:10;;;;;;;;;;;;;;;3.13;100.00;95799.81;110368;1242;68553;-60
2024/01/18 05:02:40;;;;;;;;;;;;;;;3.15;100.00;95802.20;110438;1240;60525;-60
2024/01/18 05:05:10;;;;;;;;;;;;;;;3.19;100.00;95802.29;110406;1242;60515;-60
2024/01/18 05:07:44;;;;;;;;;;;;;;;3.20;100.00;95808.57;110536;1238;72827;-60
2024/01/18 05:10:14;;;;;;;;;;;;;;;3.22;100.00;95801.06;110488;1242;69056;-59
2024/01/18 05:12:45;;;;;;;;;;;;;;;3.27;100.00;95788.27;110395;1241;68655;-59
2024/01/18 05:15:15;;;;;;;;;;;;;;;3.37;100.00;95790.88;110497;1243;60495;-59
2024/01/18 05:17:47;;;;;;;;;;;;;;;3.47;100.00;95791.77;110482;1242;60492;-59
2024/01/18 05:20:17;;;;;;;;;;;;;;;3.56;100.00;95796.11;110452;1242;72844;-61
2024/01/18 05:22:46;;;;;;;;;;;;;;;3.63;100.00;95791.47;110485;1238;69174;-58
2024/01/18 05:25:15;;;;;;;;;;;;;;;3.70;100.00;95782.36;110405;1241;69099;-57
2024/01/18 05:27:44;;;;;;;;;;;;;;;3.77;100.00;95779.27;110409;1241;60547;-59
2024/01/18 05:30:13;;;;;;;;;;;;;;;3.81;100.00;95776.02;110358;1242;60474;-57
2024/01/18 05:32:43;;;;;;;;;;;;;;;3.86;100.00;95777.95;110373;1241;72172;-59
2024/01/18 05:35:13;;;;;;;;;;;;;;;3.89;100.00;95777.73;110363;1238;69099;-60
2024/01/18 05:37:43;;;;;;;;;;;;;;;3.92;100.00;95776.45;110379;1241;69310;-59
2024/01/18 05:40:13;;;;;;;;;;;;;;;3.95;100.00;95771.59;110425;1243;60501;-60
2024/01/18 05:42:42;;;;;;;;;;;;;;;4.00;100.00;95771.02;110398;1242;60429;-59
2024/01/18 05:45:12;;;;;;;;;;;;;;;4.04;100.00;95766.59;110397;1241;72789;-60
2024/01/18 05:47:42;;;;;;;;;;;;;;;4.08;100.00;95766.48;110367;1241;69254;-60
2024/01/18 05:50:12;;;;;;;;;;;;;;;4.12;100.00;95759.54;110373;1242;68642;-61
2024/01/18 05:52:41;;;;;;;;;;;;;;;4.13;100.00;95755.62;110595;1240;60546;-61
2024/01/18 05:55:11;;;;;;;;;;;;;;;4.16;100.00;95752.15;110486;1241;60429;-60
2024/01/18 05:57:41;;;;;;;;;;;;;;;4.17;100.00;95749.83;110389;1238;73643;-60
2024/01/18 06:00:12;;;;;;;;;;;;;;;4.19;100.00;95749.13;110561;1242;69725;-60
2024/01/18 06:02:42;;;;;;;;;;;;;;;4.21;100.00;95744.88;110506;1242;68311;-60
2024/01/18 06:05:13;;;;;;;;;;;;;;;4.22;100.00;95739.80;110350;1241;60537;-60
2024/01/18 06:07:42;;;;;;;;;;;;;;;4.22;100.00;95736.70;110374;1241;60938;-60
2024/01/18 06:10:12;;;;;;;;;;;;;;;4.25;100.00;95735.60;110419;1249;72661;-59
2024/01/18 06:12:42;;;;;;;;;;;;;;;4.27;100.00;95739.04;110423;1241;69044;-60
2024/01/18 06:15:11;;;;;;;;;;;;;;;4.32;100.00;95736.28;110390;1238;69879;-62
2024/01/18 06:17:41;;;;;;;;;;;;;;;4.38;100.00;95736.36;110452;1241;60492;-62
2024/01/18 06:20:14;;;;;;;;;;;;;;;4.42;100.00;95730.20;110348;1238;60489;-60
2024/01/18 06:22:44;;;;;;;;;;;;;;;4.49;100.00;95718.27;110460;1242;71563;-62
2024/01/18 06:25:15;;;;;;;;;;;;;;;4.55;100.00;95719.91;110401;1241;69210;-62
2024/01/18 06:27:44;;;;;;;;;;;;;;;4.62;100.00;95722.50;110398;1241;69487;-62
2024/01/18 06:30:14;;;;;;;;;;;;;;;4.67;100.00;95719.17;110426;1240;60998;-62
2024/01/18 06:32:44;;;;;;;;;;;;;;;4.72;100.00;95718.41;110480;1242;60415;-61
2024/01/18 06:35:15;;;;;;;;;;;;;;;4.79;100.00;95720.86;110473;1238;72981;-60
2024/01/18 06:37:45;;;;;;;;;;;;;;;4.84;100.00;95715.99;110472;1242;68842;-61
2024/01/18 06:40:17;;;;;;;;;;;;;;;4.89;100.00;95714.73;110473;1241;69072;-60
2024/01/18 06:42:47;;;;;;;;;;;;;;;4.94;100.00;95716.04;110444;1242;60499;-60
2024/01/18 06:45:17;;;;;;;;;;;;;;;4.99;100.00;95710.29;110441;1242;60531;-63
2024/01/18 06:47:46;;;;;;;;;;;;;;;5.05;100.00;95706.89;110405;1238;70392;-63
2024/01/18 06:50:16;;;;;;;;;;;;;;;5.09;100.00;95700.91;110460;1242;69183;-62
2024/01/18 06:52:46;;;;;;;;;;;;;;;5.13;100.00;95701.31;110500;1242;68333;-62
2024/01/18 06:55:16;;;;;;;;;;;;;;;5.16;100.00;95700.88;110499;1242;60524;-61
2024/01/18 06:57:48;;;;;;;;;;;;;;;5.19;100.00;95700.64;110494;1238;60522;-62
2024/01/18 07:00:23;;;;;;;;;;;;;;;5.22;100.00;95700.94;110446;1241;70688;-61
2024/01/18 07:02:53;;;;;;;;;;;;;;;5.24;100.00;95707.86;110519;1241;69719;-61
2024/01/18 07:05:23;;;;;;;;;;;;;;;5.25;100.00;95715.04;110368;1242;69287;-61
2024/01/18 07:07:52;;;;;;;;;;;;;;;5.24;100.00;95706.48;110417;1242;60482;-61
2024/01/18 07:10:22;;;;;;;;;;;;;;;5.24;100.00;95700.07;110468;1242;60532;-61
2024/01/18 07:12:52;;;;;;;;;;;;;;;5.26;100.00;95696.84;110480;1242;72018;-61
2024/01/18 07:15:21;;;;;;;;;;;;;;;5.30;100.00;95702.58;110395;1242;69856;-61
2024/01/18 07:17:51;;;;;;;;;;;;;;;5.33;100.00;95696.29;110343;1242;69888;-61
2024/01/18 07:20:20;;;;;;;;;;;;;;;5.37;100.00;95699.27;110359;1242;60430;-59
2024/01/18 07:22:51;;;;;;;;;;;;;;;5.41;100.00;95702.52;110405;1238;60403;-60
2024/01/18 07:25:22;;;;;;;;;;;;;;;5.45;100.00;95694.45;110408;1238;71468;-62
2024/01/18 07:27:51;;;;;;;;;;;;;;;5.48;100.00;95686.26;110506;1242;69247;-61
2024/01/18 07:30:22;;;;;;;;;;;;;;;5.51;100.00;95683.80;110493;1242;69632;-61
2024/01/18 07:32:51;;;;;;;;;;;;;;;5.52;100.00;95682.48;110455;1238;60467;-61
2024/01/18 07:35:21;;;;;;;;;;;;;;;5.54;100.00;95684.86;110492;1241;60468;-61
2024/01/18 07:37:50;;;;;;;;;;;;;;;5.57;100.00;95684.32;110435;1241;72361;-60
2024/01/18 07:40:19;;;;;;;;;;;;;;;5.61;100.00;95683.42;110491;1241;68202;-61
2024/01/18 07:42:48;;;;;;;;;;;;;;;5.67;100.00;95683.20;110463;1241;67581;-62
2024/01/18 07:45:18;;;;;;;;;;;;;;;5.72;100.00;95683.66;110473;1242;60466;-61
2024/01/18 07:47:47;;;;;;;;;;;;;;;5.76;100.00;95676.38;110504;1242;60550;-62
2024/01/18 07:50:16;;;;;;;;;;;;;;;5.80;100.00;95680.94;110434;1241;72133;-62
2024/01/18 07:53:03;;;;;;;;;;;;;;;5.83;100.00;95674.33;110448;1238;68476;-62
2024/01/18 07:55:33;;;;;;;;;;;;;;;5.88;100.00;95670.80;110569;1241;70928;-62
2024/01/18 07:58:02;;;;;;;;;;;;;;;5.92;100.00;95667.65;110537;1242;60492;-62
2024/01/18 08:00:32;;;;;;;;;;;;;;;5.98;100.00;95668.11;110475;1242;60547;-61
2024/01/18 08:03:02;;;;;;;;;;;;;;;6.05;100.00;95668.89;110332;1242;72340;-61
2024/01/18 08:06:08;;;;;;;;;;;;;;;6.11;100.00;95671.98;110569;1242;69751;-61
2024/01/18 08:08:40;;;;;;;;;;;;;;;6.15;100.00;95679.31;110365;1241;68338;-61
2024/01/18 08:11:10;;;;;;;;;;;;;;;6.16;100.00;95681.67;110527;1241;60541;-61
2024/01/18 08:14:07;;;;;;;;;;;;;;;6.17;100.00;95684.35;110429;1241;60909;-61
2024/01/18 08:17:30;;;;;;;;;;;;;;;6.19;100.00;95683.70;110410;1242;71420;-61
2024/01/18 08:20:03;;;;;;;;;;;;;;;6.22;100.00;95681.00;110445;1242;69190;-61
2024/01/18 08:22:32;;;;;;;;;;;;;;;6.26;100.00;95669.91;110555;1242;68459;-61
2024/01/18 08:25:02;;;;;;;;;;;;;;;6.29;100.00;95670.34;110509;1242;60490;-61
2024/01/18 08:27:32;;;;;;;;;;;;;;;6.31;100.00;95665.82;110376;1241;60496;-61
2024/01/18 08:30:03;;;;;;;;;;;;;;;6.31;100.00;95661.66;110432;1242;72753;-59
2024/01/18 08:32:34;;;;;;;;;;;;;;;6.31;100.00;95666.94;110521;1242;69717;-62
2024/01/18 08:35:06;;;;;;;;;;;;;;;6.27;100.00;95668.93;110414;1242;69847;-59
2024/01/18 08:37:37;;;;;;;;;;;;;;;6.26;100.00;95671.85;110390;1242;60502;-59
2024/01/18 08:40:08;;;;;;;;;;;;;;;6.27;100.00;95672.64;110473;1239;60527;-62
2024/01/18 08:42:45;;;;;;;;;;;;;;;6.29;100.00;95675.56;110500;1242;72804;-60
2024/01/18 08:45:14;;;;;;;;;;;;;;;6.32;100.00;95673.41;110442;1241;69338;-60
2024/01/18 08:47:44;;;;;;;;;;;;;;;6.37;100.00;95680.77;110317;1241;68289;-60
2024/01/18 08:50:15;;;;;;;;;;;;;;;6.44;100.00;95681.35;110500;1242;60534;-60
2024/01/18 08:52:45;;;;;;;;;;;;;;;6.52;100.00;95679.65;110509;1242;60556;-60
2024/01/18 08:55:14;;;;;;;;;;;;;;;6.62;100.00;95679.02;110517;1242;72626;-60
2024/01/18 08:57:43;;;;;;;;;;;;;;;6.73;100.00;95677.26;110578;1242;69280;-60
2024/01/18 09:00:17;;;;;;;;;;;;;;;6.84;100.00;95676.09;110556;1242;70307;-59
2024/01/18 09:02:47;;;;;;;;;;;;;;;6.96;100.00;95675.30;110488;1242;60541;-60
2024/01/18 09:05:16;;;;;;;;;;;;;;;7.06;100.00;95678.57;110367;1242;60478;-60
2024/01/18 09:07:45;;;;;;;;;;;;;;;7.17;100.00;95677.61;110477;1238;70434;-60
2024/01/18 09:10:15;;;;;;;;;;;;;;;7.27;100.00;95670.50;110469;1242;69259;-60
2024/01/18 09:12:45;;;;;;;;;;;;;;;7.36;100.00;95675.61;110377;1242;69241;-60
2024/01/18 09:15:16;;;;;;;;;;;;;;;7.49;100.00;95675.71;110457;1242;60478;-62
2024/01/18 09:17:45;;;;;;;;;;;;;;;7.70;100.00;95675.38;110377;1241;60485;-61
2024/01/18 09:20:15;;;;;;;;;;;;;;;8.00;100.00;95671.98;110411;1243;72124;-60
2024/01/18 09:22:45;;;;;;;;;;;;;;;8.24;100.00;95665.98;110364;1242;69760;-60
2024/01/18 09:25:15;;;;;;;;;;;;;;;8.34;100.00;95661.23;110389;1242;68539;-60
2024/01/18 09:27:44;;;;;;;;;;;;;;;8.36;100.00;95663.55;110213;1245;60557;-60
2024/01/18 09:30:14;;;;;;;;;;;;;;;8.32;100.00;95659.75;110347;1242;60537;-60
2024/01/18 09:32:44;;;;;;;;;;;;;;;8.24;100.00;95658.20;110322;1238;72313;-60
2024/01/18 09:35:14;;;;;;;;;;;;;;;8.24;100.00;95647.27;110408;1242;68469;-60
2024/01/18 09:37:44;;;;;;;;;;;;;;;8.22;100.00;95650.74;110446;1241;69115;-60
2024/01/18 09:40:13;;;;;;;;;;;;;;;8.24;100.00;95654.36;110595;1241;60546;-61
2024/01/18 09:42:46;;;;;;;;;;;;;;;8.31;100.00;95659.30;110600;1242;60535;-60
2024/01/18 09:45:20;;;;;;;;;;;;;;;8.42;100.00;95652.80;110451;1242;71445;-60
2024/01/18 09:47:52;;;;;;;;;;;;;;;8.48;100.00;95644.20;110415;1241;69317;-59
2024/01/18 09:50:23;;;;;;;;;;;;;;;8.55;100.00;95640.07;110466;1243;68499;-59
2024/01/18 09:52:53;;;;;;;;;;;;;;;8.59;100.00;95636.45;110408;1241;60902;-60
2024/01/18 09:55:22;;;;;;;;;;;;;;;8.60;100.00;95635.09;110428;1242;60576;-59
2024/01/18 09:57:54;;;;;;;;;;;;;;;8.56;100.00;95639.34;110356;1242;72152;-60
2024/01/18 10:00:26;;;;;;;;;;;;;;;8.54;100.00;95633.91;110366;1241;69863;-60
2024/01/18 10:02:55;;;;;;;;;;;;;;;8.52;100.00;95634.11;110353;1242;69717;-60
2024/01/18 10:05:25;;;;;;;;;;;;;;;8.48;100.00;95633.27;110380;1241;60482;-60
2024/01/18 10:07:55;;;;;;;;;;;;;;;8.44;100.00;95630.54;110610;1239;60543;-60
2024/01/18 10:10:24;;;;;;;;;;;;;;;8.43;100.00;95626.63;110582;1242;72227;-59
2024/01/18 10:12:53;;;;;;;;;;;;;;;8.44;100.00;95622.59;110428;1243;69265;-59
2024/01/18 10:15:32;;;;;;;;;;;;;;;8.45;100.00;95622.52;110445;1242;69195;-59
2024/01/18 10:18:04;;;;;;;;;;;;;;;8.48;100.00;95619.37;110452;1239;60528;-59
2024/01/18 10:20:34;;;;;;;;;;;;;;;8.50;100.00;95620.60;110372;1243;60528;-59
2024/01/18 10:23:03;;;;;;;;;;;;;;;8.54;100.00;95621.92;110385;1242;72901;-59
2024/01/18 10:25:34;;;;;;;;;;;;;;;8.53;100.00;95615.27;110356;1241;69798;-59
2024/01/18 10:28:03;;;;;;;;;;;;;;;8.54;100.00;95611.17;110403;1242;69262;-61
2024/01/18 10:30:33;;;;;;;;;;;;;;;8.53;100.00;95608.75;110504;1241;60988;-61
2024/01/18 10:33:03;;;;;;;;;;;;;;;8.53;100.00;95607.48;110449;1242;60433;-62
2024/01/18 10:35:32;;;;;;;;;;;;;;;8.53;100.00;95597.39;110501;1242;72122;-61
2024/01/18 10:38:04;;;;;;;;;;;;;;;8.50;100.00;95595.08;110478;1240;68625;-61
2024/01/18 10:40:34;;;;;;;;;;;;;;;8.51;100.00;95593.63;110332;1240;69860;-61
2024/01/18 10:43:04;;;;;;;;;;;;;;;8.55;100.00;95593.61;110412;1238;60531;-61
2024/01/18 10:45:33;;;;;;;;;;;;;;;8.56;100.00;95595.88;110508;1243;60498;-61
2024/01/18 10:48:04;;;;;;;;;;;;;;;8.57;100.00;95593.36;110530;1242;72211;-61
2024/01/18 10:50:36;;;;;;;;;;;;;;;8.59;100.00;95590.62;110539;1238;69016;-61
2024/01/18 10:53:07;;;;;;;;;;;;;;;8.59;100.00;95587.86;110339;1242;69287;-61
2024/01/18 10:55:35;;;;;;;;;;;;;;;8.58;100.00;95583.02;110402;1238;60492;-61
2024/01/18 10:58:07;;;;;;;;;;;;;;;8.59;100.00;95581.91;110415;1242;60437;-61
2024/01/18 11:00:36;;;;;;;;;;;;;;;8.58;100.00;95577.24;110535;1240;72146;-60
2024/01/18 11:03:06;;;;;;;;;;;;;;;8.57;100.00;95581.59;110413;1242;69822;-60
2024/01/18 11:05:36;;;;;;;;;;;;;;;8.57;100.00;95572.32;109995;1242;604347;-60
2024/01/18 11:08:06;;;;;;;;;;;;;;;8.57;100.00;95577.04;110454;1244;60473;-60
2024/01/18 11:10:36;;;;;;;;;;;;;;;8.58;100.00;95572.59;110477;1242;60534;-60
2024/01/18 11:13:06;;;;;;;;;;;;;;;8.57;100.00;95573.81;110461;1242;72093;-60
2024/01/18 11:15:37;;;;;;;;;;;;;;;8.59;100.00;95575.14;110411;1241;69287;-60
2024/01/18 11:18:10;;;;;;;;;;;;;;;8.62;100.00;95571.70;110431;1244;69713;-60
2024/01/18 11:20:57;;;;;;;;;;;;;;;8.62;100.00;95569.94;110519;1249;60563;-60
2024/01/18 11:23:33;;;;;;;;;;;;;;;8.65;100.00;95560.54;110376;1239;60391;-60
2024/01/18 11:26:06;;;;;;;;;;;;;;;8.65;100.00;95557.67;110515;1242;72791;-61
2024/01/18 11:28:35;;;;;;;;;;;;;;;8.65;100.00;95563.77;110519;1239;69371;-61
2024/01/18 11:31:06;;;;;;;;;;;;;;;8.68;100.00;95560.14;110483;1241;69377;-61
2024/01/18 11:33:35;;;;;;;;;;;;;;;8.72;100.00;95554.64;110581;1243;60624;-61
2024/01/18 11:36:07;;;;;;;;;;;;;;;8.76;100.00;95547.47;110518;1242;60499;-60
2024/01/18 11:38:43;;;;;;;;;;;;;;;8.77;100.00;95545.00;110481;1243;71476;-60
2024/01/18 11:41:22;;;;;;;;;;;;;;;8.77;100.00;95539.98;110458;1241;69818;-60
2024/01/18 11:43:54;;;;;;;;;;;;;;;8.76;100.00;95529.98;110536;1241;69246;-60
2024/01/18 11:46:33;;;;;;;;;;;;;;;8.74;100.00;95526.56;110542;1241;60934;-60
2024/01/18 11:49:02;;;;;;;;;;;;;;;8.69;100.00;95522.10;110414;1243;60545;-59
2024/01/18 11:51:32;;;;;;;;;;;;;;;8.65;100.00;95526.75;110513;1242;72690;-60
2024/01/18 11:54:01;;;;;;;;;;;;;;;8.61;100.00;95519.02;110403;1242;68986;-59
2024/01/18 11:56:34;;;;;;;;;;;;;;;8.57;100.00;95517.63;110531;1242;69877;-60
2024/01/18 11:59:03;;;;;;;;;;;;;;;8.54;100.00;95517.62;110445;1242;60538;-59
2024/01/18 12:01:33;;;;;;;;;;;;;;;8.51;100.00;95517.59;110402;1241;60519;-61
2024/01/18 12:04:03;;;;;;;;;;;;;;;8.50;100.00;95517.15;110426;1239;72607;-62
2024/01/18 12:06:33;;;;;;;;;;;;;;;8.47;100.00;95514.48;110388;1241;69216;-60
2024/01/18 12:09:03;;;;;;;;;;;;;;;8.44;100.00;95514.05;110466;1243;69864;-60
2024/01/18 12:11:33;;;;;;;;;;;;;;;8.40;100.00;95512.17;110468;1246;60908;-59
2024/01/18 12:14:02;;;;;;;;;;;;;;;8.35;100.00;95508.63;110392;1242;60450;-61
2024/01/18 12:16:32;;;;;;;;;;;;;;;8.31;100.00;95508.29;110581;1246;71363;-60
2024/01/18 12:19:03;;;;;;;;;;;;;;;8.29;100.00;95504.66;110534;1242;69806;-62
2024/01/18 12:21:32;;;;;;;;;;;;;;;8.29;100.00;95498.80;110503;1242;69583;-62
2024/01/18 12:24:01;;;;;;;;;;;;;;;8.30;100.00;95500.80;110605;1243;60489;-60
2024/01/18 12:26:30;;;;;;;;;;;;;;;8.29;100.00;95495.35;110601;1243;60469;-60
2024/01/18 12:29:00;;;;;;;;;;;;;;;8.27;100.00;95494.11;110609;1242;71161;-59
2024/01/18 12:31:30;;;;;;;;;;;;;;;8.25;100.00;95490.61;110458;1242;69247;-60
2024/01/18 12:33:59;;;;;;;;;;;;;;;8.24;100.00;95490.45;110557;1242;69226;-60
2024/01/18 12:36:28;;;;;;;;;;;;;;;8.24;100.00;95496.98;110509;1242;60492;-60
2024/01/18 12:38:57;;;;;;;;;;;;;;;8.23;100.00;95490.84;110623;1241;60498;-60
2024/01/18 12:41:26;;;;;;;;;;;;;;;8.22;100.00;95488.45;110637;1243;72272;-60
2024/01/18 12:43:56;;;;;;;;;;;;;;;8.23;100.00;95482.58;110584;1248;68370;-61
2024/01/18 12:46:26;;;;;;;;;;;;;;;8.22;100.00;95484.13;110510;1242;69059;-61
2024/01/18 12:48:55;;;;;;;;;;;;;;;8.24;100.00;95484.04;110449;1242;60481;-62
2024/01/18 12:51:24;;;;;;;;;;;;;;;8.24;100.00;95484.02;110495;1241;60472;-62
2024/01/18 12:53:54;;;;;;;;;;;;;;;8.23;100.00;95482.35;110585;1242;72603;-61
2024/01/18 12:56:23;;;;;;;;;;;;;;;8.21;100.00;95478.17;110545;1242;69793;-62